createdAt,value
2019-02-04T00:01:10.523Z,1.90
2019-02-04T00:03:51.569Z,1.90
2019-02-04T00:09:16.623Z,2.20
2019-02-04T00:11:57.720Z,2.30
2019-02-04T00:14:40.159Z,2.30
2019-02-04T00:17:21.458Z,2.10
2019-02-04T00:20:03.141Z,2.00
2019-02-04T00:22:43.885Z,1.80
2019-02-04T00:25:25.370Z,1.60
2019-02-04T00:28:07.181Z,1.50
2019-02-04T00:30:48.768Z,1.50
2019-02-04T00:33:32.111Z,1.60
2019-02-04T00:36:14.687Z,1.70
2019-02-04T00:38:57.032Z,1.70
2019-02-04T00:41:38.518Z,1.50
2019-02-04T00:44:20.732Z,1.40
2019-02-04T00:47:03.044Z,1.40
2019-02-04T00:49:44.072Z,1.40
2019-02-04T00:52:24.809Z,1.50
2019-02-04T00:55:05.182Z,1.50
2019-02-04T00:57:46.021Z,1.50
2019-02-04T01:00:27.065Z,1.50
2019-02-04T01:03:07.767Z,1.60
2019-02-04T01:05:52.118Z,1.70
2019-02-04T01:08:34.212Z,1.70
2019-02-04T01:11:15.247Z,1.60
2019-02-04T01:13:59.290Z,1.50
2019-02-04T01:16:40.606Z,1.50
2019-02-04T01:19:23.248Z,1.50
2019-02-04T01:22:04.434Z,1.50
2019-02-04T01:24:48.098Z,1.40
2019-02-04T01:27:28.619Z,1.40
2019-02-04T01:30:10.607Z,1.60
2019-02-04T01:32:54.838Z,1.60
2019-02-04T01:35:36.364Z,1.50
2019-02-04T01:38:17.875Z,1.30
2019-02-04T01:40:58.903Z,1.20
2019-02-04T01:46:23.884Z,1.20
2019-02-04T01:49:04.720Z,1.10
2019-02-04T01:51:45.741Z,1.30
2019-02-04T01:54:26.472Z,1.30
2019-02-04T01:57:07.751Z,1.40
2019-02-04T01:59:48.382Z,1.30
2019-02-04T02:02:29.581Z,1.10
2019-02-04T02:05:10.169Z,1.00
2019-02-04T02:07:51.467Z,1.00
2019-02-04T02:10:38.529Z,1.10
2019-02-04T02:16:03.043Z,1.20
2019-02-04T02:18:44.151Z,1.20
2019-02-04T02:21:25.081Z,1.20
2019-02-04T02:24:05.619Z,1.40
2019-02-04T02:26:47.099Z,1.40
2019-02-04T02:29:27.916Z,1.50
2019-02-04T02:32:08.551Z,1.60
2019-02-04T02:34:49.326Z,1.30
2019-02-04T02:37:32.451Z,1.10
2019-02-04T02:40:13.061Z,1.00
2019-02-04T02:42:54.174Z,1.00
2019-02-04T02:45:34.874Z,1.20
2019-02-04T02:48:17.986Z,1.40
2019-02-04T02:50:58.585Z,1.40
2019-02-04T02:53:40.396Z,1.10
2019-02-04T02:56:22.535Z,0.70
2019-02-04T02:59:05.376Z,0.60
2019-02-04T03:01:49.201Z,0.60
2019-02-04T03:04:30.213Z,0.60
2019-02-04T03:07:11.404Z,0.40
2019-02-04T03:09:52.375Z,0.30
2019-02-04T03:12:33.339Z,0.50
2019-02-04T03:18:03.847Z,0.90
2019-02-04T03:20:46.958Z,1.00
2019-02-04T03:23:15.394Z,0.60
2019-02-04T03:26:03.803Z,0.30
2019-02-04T03:28:51.667Z,0.20
2019-02-04T03:34:46.311Z,0.30
2019-02-04T03:37:34.191Z,0.30
2019-02-04T03:40:43.000Z,0.40
2019-02-04T03:46:26.074Z,0.20
2019-02-04T03:52:09.042Z,0.90
2019-02-04T03:58:05.581Z,0.80
2019-02-04T04:00:53.680Z,0.70
2019-02-04T04:03:42.511Z,0.50
2019-02-04T04:06:30.276Z,0.40
2019-02-04T04:12:33.443Z,0.30
2019-02-04T04:21:12.623Z,0.80
2019-02-04T04:24:00.469Z,0.80
2019-02-04T04:29:56.756Z,1.00
2019-02-04T04:35:44.965Z,0.70
2019-02-04T04:38:46.482Z,0.60
2019-02-04T04:41:22.374Z,0.70
2019-02-04T04:44:10.392Z,0.90
2019-02-04T04:47:00.439Z,1.00
2019-02-04T04:55:43.730Z,1.20
2019-02-04T04:58:31.806Z,1.20
2019-02-04T05:04:28.138Z,1.30
2019-02-04T05:07:16.754Z,1.30
2019-02-04T05:10:25.516Z,1.30
2019-02-04T05:13:06.536Z,1.30
2019-02-04T05:18:38.149Z,1.30
2019-02-04T05:21:15.693Z,1.10
2019-02-04T05:23:56.240Z,0.90
2019-02-04T05:26:37.614Z,0.70
2019-02-04T05:29:18.176Z,0.80
2019-02-04T05:32:00.286Z,0.70
2019-02-04T05:34:42.192Z,0.40
2019-02-04T05:37:24.265Z,0.30
2019-02-04T05:40:05.511Z,0.10
2019-02-04T05:42:48.105Z,0.30
2019-02-04T05:45:30.082Z,0.10
2019-02-04T05:48:11.350Z,0.00
2019-02-04T05:50:53.253Z,-0.10
2019-02-04T05:53:33.675Z,-0.10
2019-02-04T05:56:15.568Z,-0.20
2019-02-04T05:58:56.246Z,-0.10
2019-02-04T06:01:38.618Z,-0.10
2019-02-04T06:04:20.613Z,-0.20
2019-02-04T06:07:01.677Z,-0.30
2019-02-04T06:09:42.783Z,-0.20
2019-02-04T06:12:25.239Z,-0.40
2019-02-04T06:15:06.740Z,-0.50
2019-02-04T06:17:47.851Z,-0.50
2019-02-04T06:20:29.894Z,-0.40
2019-02-04T06:23:10.656Z,-0.40
2019-02-04T06:25:51.645Z,-0.50
2019-02-04T06:28:34.035Z,-0.40
2019-02-04T06:31:14.257Z,-0.60
2019-02-04T06:33:56.371Z,-0.70
2019-02-04T06:36:38.776Z,-0.80
2019-02-04T06:39:21.564Z,-0.80
2019-02-04T06:42:04.044Z,-0.80
2019-02-04T06:44:45.010Z,-0.80
2019-02-04T06:47:27.208Z,-0.80
2019-02-04T06:50:09.645Z,-0.80
2019-02-04T06:52:51.965Z,-0.80
2019-02-04T06:55:33.463Z,-0.70
2019-02-04T06:58:15.845Z,-0.30
2019-02-04T07:00:58.034Z,-0.60
2019-02-04T07:03:38.523Z,-0.60
2019-02-04T07:06:20.822Z,-0.70
2019-02-04T07:09:03.321Z,-0.70
2019-02-04T07:11:45.879Z,-0.60
2019-02-04T07:14:27.891Z,-0.40
2019-02-04T07:17:08.699Z,0.00
2019-02-04T07:19:50.745Z,0.10
2019-02-04T07:22:31.207Z,0.10
2019-02-04T07:25:12.739Z,0.10
2019-02-04T07:27:53.527Z,-0.10
2019-02-04T07:30:33.998Z,0.10
2019-02-04T07:33:14.834Z,0.20
2019-02-04T07:35:55.800Z,0.30
2019-02-04T07:38:36.331Z,0.40
2019-02-04T07:41:16.991Z,0.40
2019-02-04T07:43:57.710Z,0.50
2019-02-04T07:46:38.246Z,0.30
2019-02-04T07:49:18.826Z,-0.10
2019-02-04T07:51:59.521Z,-0.10
2019-02-04T07:54:41.732Z,-0.20
2019-02-04T07:57:22.931Z,-0.20
2019-02-04T08:00:04.043Z,0.00
2019-02-04T08:02:45.189Z,0.10
2019-02-04T08:08:09.034Z,0.40
2019-02-04T08:10:50.832Z,0.60
2019-02-04T08:13:32.394Z,0.50
2019-02-04T08:16:13.887Z,0.40
2019-02-04T08:18:54.330Z,0.60
2019-02-04T08:21:35.904Z,0.80
2019-02-04T08:24:16.261Z,0.60
2019-02-04T08:26:57.658Z,0.70
2019-02-04T08:29:38.976Z,0.60
2019-02-04T08:32:19.711Z,0.70
2019-02-04T08:35:02.890Z,0.80
2019-02-04T08:37:43.876Z,0.90
2019-02-04T08:40:24.948Z,0.80
2019-02-04T08:43:06.308Z,0.90
2019-02-04T08:45:47.183Z,1.00
2019-02-04T08:48:27.840Z,1.00
2019-02-04T08:51:09.135Z,0.80
2019-02-04T08:53:50.911Z,0.90
2019-02-04T08:56:31.699Z,1.00
2019-02-04T08:59:13.017Z,1.20
2019-02-04T09:01:55.518Z,1.20
2019-02-04T09:04:40.064Z,1.30
2019-02-04T09:07:21.588Z,1.20
2019-02-04T09:10:03.122Z,1.10
2019-02-04T09:12:43.788Z,1.20
2019-02-04T09:15:26.344Z,1.30
2019-02-04T09:18:06.898Z,1.40
2019-02-04T09:20:49.215Z,1.40
2019-02-04T09:23:32.156Z,1.40
2019-02-04T09:26:14.446Z,1.50
2019-02-04T09:28:55.271Z,1.50
2019-02-04T09:31:36.217Z,1.60
2019-02-04T09:34:18.824Z,1.70
2019-02-04T09:36:59.873Z,1.60
2019-02-04T09:39:40.551Z,1.50
2019-02-04T09:42:22.649Z,1.60
2019-02-04T09:45:03.172Z,1.50
2019-02-04T09:47:43.973Z,1.40
2019-02-04T09:50:24.803Z,1.60
2019-02-04T09:53:07.311Z,1.70
2019-02-04T09:55:49.388Z,1.80
2019-02-04T09:58:30.627Z,1.80
2019-02-04T10:01:11.288Z,1.70
2019-02-04T10:03:52.150Z,1.70
2019-02-04T10:06:33.887Z,1.80
2019-02-04T10:09:15.220Z,1.80
2019-02-04T10:11:56.317Z,1.80
2019-02-04T10:14:36.729Z,1.70
2019-02-04T10:17:18.578Z,1.90
2019-02-04T10:20:01.164Z,2.00
2019-02-04T10:22:44.075Z,2.00
2019-02-04T10:25:24.861Z,2.00
2019-02-04T10:28:07.308Z,2.00
2019-02-04T10:30:48.343Z,2.00
2019-02-04T10:33:28.828Z,2.10
2019-02-04T10:36:11.101Z,2.00
2019-02-04T10:38:53.003Z,2.10
2019-02-04T10:41:33.602Z,2.10
2019-02-04T10:44:15.770Z,2.20
2019-02-04T10:46:57.005Z,2.20
2019-02-04T10:49:37.989Z,2.20
2019-02-04T10:52:19.270Z,2.30
2019-02-04T10:55:00.182Z,2.40
2019-02-04T10:57:41.949Z,2.40
2019-02-04T11:00:25.001Z,2.40
2019-02-04T11:03:05.367Z,2.40
2019-02-04T11:05:47.545Z,2.40
2019-02-04T11:08:27.891Z,2.50
2019-02-04T11:11:11.686Z,2.50
2019-02-04T11:13:52.755Z,2.60
2019-02-04T11:16:35.903Z,2.60
2019-02-04T11:19:16.400Z,2.80
2019-02-04T11:21:57.002Z,2.80
2019-02-04T11:24:40.588Z,2.90
2019-02-04T11:27:20.752Z,2.90
2019-02-04T11:30:01.406Z,2.90
2019-02-04T11:32:42.437Z,3.00
2019-02-04T11:35:24.101Z,3.00
2019-02-04T11:38:04.353Z,3.00
2019-02-04T11:40:48.579Z,3.10
2019-02-04T11:43:30.941Z,3.10
2019-02-04T11:46:12.106Z,3.10
2019-02-04T11:48:53.221Z,3.20
2019-02-04T11:51:34.277Z,3.20
2019-02-04T11:54:14.995Z,3.30
2019-02-04T11:56:57.940Z,3.30
2019-02-04T11:59:39.575Z,3.30
2019-02-04T12:02:20.190Z,3.30
2019-02-04T12:05:00.714Z,3.30
2019-02-04T12:07:43.505Z,3.30
2019-02-04T12:10:25.491Z,3.50
2019-02-04T12:15:52.066Z,3.60
2019-02-04T12:18:34.393Z,3.60
2019-02-04T12:21:21.563Z,3.50
2019-02-04T12:24:02.861Z,3.80
2019-02-04T12:26:44.166Z,3.80
2019-02-04T12:29:24.347Z,4.00
2019-02-04T12:32:06.613Z,3.90
2019-02-04T12:34:48.476Z,4.00
2019-02-04T12:37:29.198Z,4.00
2019-02-04T12:42:55.838Z,4.20
2019-02-04T12:45:38.620Z,4.30
2019-02-04T12:51:07.678Z,4.50
2019-02-04T12:53:48.339Z,4.50
2019-02-04T12:56:29.158Z,4.60
2019-02-04T12:59:11.656Z,4.70
2019-02-04T13:01:52.106Z,4.80
2019-02-04T13:04:33.282Z,4.90
2019-02-04T13:07:14.247Z,5.00
2019-02-04T13:09:55.469Z,4.80
2019-02-04T13:12:38.053Z,4.70
2019-02-04T13:15:20.667Z,5.10
2019-02-04T13:18:01.388Z,5.30
2019-02-04T13:20:42.305Z,5.40
2019-02-04T13:23:22.737Z,5.60
2019-02-04T13:26:07.568Z,5.90
2019-02-04T13:28:47.791Z,5.80
2019-02-04T13:31:28.898Z,5.80
2019-02-04T13:34:09.875Z,5.90
2019-02-04T13:39:36.303Z,6.30
2019-02-04T13:45:20.806Z,6.20
2019-02-04T13:48:02.031Z,6.00
2019-02-04T13:53:31.800Z,6.30
2019-02-04T13:56:11.925Z,6.30
2019-02-04T13:58:52.412Z,6.20
2019-02-04T14:01:36.744Z,6.10
2019-02-04T14:04:17.807Z,5.80
2019-02-04T14:06:58.616Z,5.70
2019-02-04T14:09:39.655Z,5.80
2019-02-04T14:12:20.044Z,5.90
2019-02-04T14:15:00.778Z,5.80
2019-02-04T14:17:43.007Z,5.80
2019-02-04T14:20:25.615Z,5.90
2019-02-04T14:23:07.711Z,5.50
2019-02-04T14:25:49.548Z,5.80
2019-02-04T14:40:18.124Z,6.40
2019-02-04T14:45:46.733Z,6.30
2019-02-04T14:48:27.659Z,6.10
2019-02-04T14:51:09.650Z,5.90
2019-02-04T14:56:37.888Z,5.80
2019-02-04T14:59:20.218Z,5.70
2019-02-04T15:02:01.419Z,5.70
2019-02-04T15:04:42.252Z,5.70
2019-02-04T15:07:24.847Z,5.70
2019-02-04T15:10:05.984Z,5.60
2019-02-04T15:12:51.519Z,5.50
2019-02-04T15:18:20.357Z,5.50
2019-02-04T15:21:02.307Z,5.60
2019-02-04T15:23:44.122Z,5.50
2019-02-04T15:26:26.858Z,5.40
2019-02-04T15:29:10.597Z,5.40
2019-02-04T15:31:52.260Z,5.30
2019-02-04T15:34:33.017Z,5.20
2019-02-04T15:37:15.206Z,5.20
2019-02-04T15:42:43.853Z,5.40
2019-02-04T15:45:25.800Z,5.20
2019-02-04T15:48:06.338Z,5.00
2019-02-04T15:50:50.258Z,4.80
2019-02-04T15:53:33.190Z,4.80
2019-02-04T15:56:14.414Z,4.70
2019-02-04T15:58:55.186Z,4.70
2019-02-04T16:04:19.746Z,4.60
2019-02-04T16:07:00.577Z,4.50
2019-02-04T16:12:27.875Z,4.50
2019-02-04T16:15:10.798Z,4.60
2019-02-04T16:20:37.291Z,4.50
2019-02-04T16:23:19.197Z,4.40
2019-02-04T16:25:59.874Z,4.30
2019-02-04T16:28:43.043Z,4.20
2019-02-04T16:31:23.391Z,4.10
2019-02-04T16:34:04.591Z,4.10
2019-02-04T16:36:46.640Z,4.10
2019-02-04T16:39:30.502Z,4.10
2019-02-04T16:45:02.171Z,4.10
2019-02-04T16:47:42.602Z,4.10
2019-02-04T16:50:25.380Z,4.00
2019-02-04T16:53:10.464Z,3.90
2019-02-04T16:58:34.954Z,3.70
2019-02-04T17:01:15.518Z,3.60
2019-02-04T17:03:56.330Z,3.50
2019-02-04T17:06:38.005Z,3.50
2019-02-04T17:09:18.505Z,3.50
2019-02-04T17:11:59.552Z,3.40
2019-02-04T17:14:43.013Z,3.40
2019-02-04T17:17:24.007Z,3.40
2019-02-04T17:20:04.603Z,3.30
2019-02-04T17:22:46.964Z,3.20
2019-02-04T17:25:29.076Z,3.30
2019-02-04T17:28:10.526Z,3.30
2019-02-04T17:30:51.390Z,3.20
2019-02-04T17:33:33.345Z,3.10
2019-02-04T17:36:14.429Z,3.10
2019-02-04T17:38:54.891Z,3.20
2019-02-04T17:41:36.506Z,3.20
2019-02-04T17:44:20.352Z,3.10
2019-02-04T17:47:02.453Z,3.10
2019-02-04T17:49:45.655Z,3.10
2019-02-04T17:52:26.299Z,3.20
2019-02-04T17:55:07.944Z,3.20
2019-02-04T17:57:51.680Z,3.20
2019-02-04T18:00:38.221Z,3.20
2019-02-04T18:06:08.701Z,3.00
2019-02-04T18:08:51.307Z,3.00
2019-02-04T18:11:33.554Z,3.20
2019-02-04T18:17:02.853Z,3.10
2019-02-04T18:19:48.835Z,3.00
2019-02-04T18:22:29.421Z,3.00
2019-02-04T18:28:01.332Z,3.10
2019-02-04T18:30:43.791Z,3.00
2019-02-04T18:33:25.106Z,2.80
2019-02-04T18:39:12.425Z,2.70
2019-02-04T18:47:28.620Z,3.10
2019-02-04T18:50:09.395Z,3.10
2019-02-04T18:52:50.399Z,3.10
2019-02-04T18:55:32.596Z,3.10
2019-02-04T19:00:58.742Z,3.10
2019-02-04T19:03:40.182Z,3.10
2019-02-04T19:06:20.788Z,3.20
2019-02-04T19:09:02.376Z,3.10
2019-02-04T19:11:46.616Z,3.10
2019-02-04T19:14:27.963Z,3.20
2019-02-04T19:17:08.712Z,3.20
2019-02-04T19:19:51.378Z,3.20
2019-02-04T19:22:37.499Z,3.20
2019-02-04T19:25:18.796Z,3.20
2019-02-04T19:28:00.762Z,3.20
2019-02-04T19:30:42.412Z,3.20
2019-02-04T19:33:25.409Z,3.10
2019-02-04T19:36:06.014Z,3.10
2019-02-04T19:38:46.919Z,3.00
2019-02-04T19:41:27.599Z,3.00
2019-02-04T19:46:56.112Z,2.90
2019-02-04T19:49:37.120Z,2.90
2019-02-04T19:52:20.500Z,3.00
2019-02-04T19:55:02.199Z,3.00
2019-02-04T19:57:44.085Z,3.00
2019-02-04T20:00:25.653Z,3.00
2019-02-04T20:03:07.638Z,3.00
2019-02-04T20:05:51.217Z,2.90
2019-02-04T20:08:31.566Z,2.90
2019-02-04T20:11:15.098Z,2.90
2019-02-04T20:13:55.968Z,2.90
2019-02-04T20:16:39.326Z,2.90
2019-02-04T20:19:20.226Z,2.90
2019-02-04T20:22:01.375Z,2.80
2019-02-04T20:24:42.572Z,2.90
2019-02-04T20:27:27.116Z,2.90
2019-02-04T20:30:07.530Z,2.80
2019-02-04T20:32:48.777Z,2.80
2019-02-04T20:35:30.196Z,2.80
2019-02-04T20:38:11.553Z,2.90
2019-02-04T20:40:52.962Z,2.80
2019-02-04T20:43:34.253Z,2.80
2019-02-04T20:46:15.546Z,2.80
2019-02-04T20:48:56.628Z,2.70
2019-02-04T20:51:37.718Z,2.70
2019-02-04T20:54:20.581Z,2.70
2019-02-04T20:57:01.627Z,2.80
2019-02-04T20:59:42.706Z,2.70
2019-02-04T21:02:23.474Z,2.80
2019-02-04T21:05:04.363Z,2.70
2019-02-04T21:07:45.015Z,2.70
2019-02-04T21:10:26.494Z,2.70
2019-02-04T21:13:08.170Z,2.60
2019-02-04T21:15:48.688Z,2.60
2019-02-04T21:18:29.308Z,2.50
2019-02-04T21:21:10.679Z,2.50
2019-02-04T21:24:19.192Z,2.50
2019-02-04T21:27:09.811Z,2.60
2019-02-04T21:29:57.904Z,2.60
2019-02-04T21:32:47.487Z,2.50
2019-02-04T21:35:35.641Z,2.50
2019-02-04T21:41:17.425Z,2.60
2019-02-04T21:44:05.519Z,2.60
2019-02-04T21:46:53.281Z,2.50
2019-02-04T21:49:41.072Z,2.50
2019-02-04T21:55:50.312Z,2.50
2019-02-04T21:58:26.172Z,2.50
2019-02-04T22:01:14.246Z,2.40
2019-02-04T22:04:02.270Z,2.40
2019-02-04T22:06:50.318Z,2.40
2019-02-04T22:09:39.828Z,2.40
2019-02-04T22:12:34.802Z,2.40
2019-02-04T22:15:24.728Z,2.50
2019-02-04T22:18:12.718Z,2.40
2019-02-04T22:21:02.206Z,2.40
2019-02-04T22:23:50.427Z,2.40
2019-02-04T22:29:47.041Z,2.40
2019-02-04T22:32:35.198Z,2.30
2019-02-04T22:35:23.422Z,2.30
2019-02-04T22:38:14.206Z,2.20
2019-02-04T22:41:01.999Z,2.20
2019-02-04T22:43:51.246Z,2.20
2019-02-04T22:46:39.430Z,2.20
2019-02-04T22:49:27.447Z,2.10
2019-02-04T22:52:15.626Z,2.10
2019-02-04T22:55:03.607Z,2.10
2019-02-04T22:57:53.398Z,2.10
2019-02-04T23:01:02.139Z,2.10
2019-02-04T23:03:50.137Z,2.10
2019-02-04T23:06:38.341Z,2.10
2019-02-04T23:12:28.697Z,2.00
2019-02-04T23:15:10.141Z,1.90
2019-02-04T23:17:50.554Z,1.90
2019-02-04T23:20:31.353Z,1.90
2019-02-04T23:23:12.157Z,1.80
2019-02-04T23:25:52.845Z,1.80
2019-02-04T23:28:33.410Z,1.80
2019-02-04T23:31:13.935Z,1.90
2019-02-04T23:33:54.401Z,1.80
2019-02-04T23:36:36.058Z,1.80
2019-02-04T23:39:16.796Z,1.80
2019-02-04T23:41:58.520Z,1.70
2019-02-04T23:44:40.087Z,1.70
2019-02-04T23:47:20.869Z,1.70
2019-02-04T23:50:01.529Z,1.70
2019-02-04T23:52:42.511Z,1.70
2019-02-04T23:55:23.361Z,1.70
2019-02-04T23:58:04.109Z,1.70
